createdAt,value
2018-12-30T00:13:12.270Z,3.63
2018-12-30T00:16:22.279Z,2.70
2018-12-30T00:18:34.229Z,4.63
2018-12-30T00:21:17.301Z,4.50
2018-12-30T00:27:34.221Z,6.37
2018-12-30T00:41:09.185Z,5.83
2018-12-30T00:42:29.336Z,4.10
2018-12-30T00:47:52.289Z,3.17
2018-12-30T01:08:36.835Z,3.10
2018-12-30T01:21:38.273Z,2.57
2018-12-30T01:27:46.666Z,3.00
2018-12-30T01:30:46.556Z,4.70
2018-12-30T01:35:45.678Z,3.93
2018-12-30T01:38:18.748Z,3.03
2018-12-30T01:40:56.861Z,3.73
2018-12-30T01:46:11.971Z,3.00
2018-12-30T01:48:30.747Z,2.50
2018-12-30T01:51:03.558Z,3.87
2018-12-30T01:54:00.617Z,3.17
2018-12-30T01:56:14.492Z,3.00
2018-12-30T02:00:00.681Z,2.83
2018-12-30T02:01:54.918Z,1.37
2018-12-30T02:06:37.359Z,3.00
2018-12-30T02:07:43.924Z,2.90
2018-12-30T02:10:16.473Z,2.90
2018-12-30T02:13:08.087Z,2.03
2018-12-30T02:15:18.831Z,2.43
2018-12-30T02:17:27.867Z,3.30
2018-12-30T02:19:37.168Z,3.13
2018-12-30T02:32:22.632Z,2.60
2018-12-30T02:35:18.798Z,2.40
2018-12-30T02:38:22.479Z,2.33
2018-12-30T02:40:43.072Z,3.10
2018-12-30T02:42:49.962Z,1.80
2018-12-30T02:47:19.615Z,2.90
2018-12-30T02:48:01.317Z,3.27
2018-12-30T02:50:27.783Z,3.00
2018-12-30T02:52:59.230Z,2.80
2018-12-30T03:01:55.547Z,3.40
2018-12-30T03:05:13.965Z,2.80
2018-12-30T03:11:04.938Z,3.63
2018-12-30T03:16:51.929Z,3.73
2018-12-30T03:19:23.741Z,3.40
2018-12-30T03:21:30.334Z,2.87
2018-12-30T03:24:13.724Z,2.97
2018-12-30T03:30:30.095Z,3.67
2018-12-30T03:33:50.660Z,3.03
2018-12-30T03:36:05.184Z,4.00
2018-12-30T03:38:13.673Z,2.20
2018-12-30T03:41:00.035Z,2.87
2018-12-30T03:43:32.516Z,3.17
2018-12-30T03:45:43.108Z,4.20
2018-12-30T03:48:11.875Z,3.70
2018-12-30T03:50:49.052Z,2.80
2018-12-30T03:52:37.649Z,2.90
2018-12-30T03:55:18.688Z,4.10
2018-12-30T03:58:00.237Z,3.27
2018-12-30T04:00:13.532Z,2.77
2018-12-30T04:02:53.463Z,2.70
2018-12-30T04:05:28.818Z,3.43
2018-12-30T04:08:08.602Z,3.93
2018-12-30T04:13:21.393Z,3.03
2018-12-30T04:15:39.596Z,2.17
2018-12-30T04:17:51.137Z,3.30
2018-12-30T04:20:03.958Z,2.43
2018-12-30T04:22:37.621Z,3.23
2018-12-30T04:24:52.425Z,4.47
2018-12-30T04:27:22.172Z,3.63
2018-12-30T04:29:43.900Z,2.90
2018-12-30T04:32:05.772Z,2.80
2018-12-30T04:34:25.821Z,3.40
2018-12-30T04:36:41.513Z,3.33
2018-12-30T04:38:54.903Z,3.33
2018-12-30T04:41:08.214Z,3.73
2018-12-30T04:43:19.660Z,4.10
2018-12-30T04:45:25.164Z,4.47
2018-12-30T04:47:44.674Z,2.97
2018-12-30T04:49:57.623Z,4.17
2018-12-30T04:52:08.839Z,3.70
2018-12-30T04:54:20.362Z,3.20
2018-12-30T04:56:34.366Z,3.47
2018-12-30T04:58:44.038Z,3.70
2018-12-30T05:00:48.756Z,3.03
2018-12-30T05:02:53.672Z,2.53
2018-12-30T05:05:02.729Z,3.33
2018-12-30T05:07:08.417Z,4.27
2018-12-30T05:09:23.038Z,3.40
2018-12-30T05:11:31.466Z,3.13
2018-12-30T05:13:45.484Z,4.03
2018-12-30T05:15:52.509Z,3.40
2018-12-30T05:17:58.254Z,2.90
2018-12-30T05:20:02.562Z,3.60
2018-12-30T05:22:10.021Z,5.33
2018-12-30T05:24:22.650Z,3.80
2018-12-30T05:26:31.629Z,5.67
2018-12-30T05:28:48.275Z,3.20
2018-12-30T05:30:59.957Z,4.93
2018-12-30T05:33:09.680Z,2.97
2018-12-30T05:35:17.542Z,3.60
2018-12-30T05:37:26.795Z,4.33
2018-12-30T05:39:38.459Z,3.77
2018-12-30T05:41:47.715Z,5.03
2018-12-30T05:43:55.145Z,3.93
2018-12-30T05:46:04.579Z,3.50
2018-12-30T05:48:10.144Z,5.00
2018-12-30T05:50:23.124Z,4.73
2018-12-30T05:52:30.486Z,3.30
2018-12-30T05:54:39.915Z,2.70
2018-12-30T05:56:50.410Z,3.60
2018-12-30T05:58:58.534Z,3.30
2018-12-30T06:01:08.712Z,4.47
2018-12-30T06:03:17.618Z,2.93
2018-12-30T06:05:25.163Z,3.77
2018-12-30T06:07:32.030Z,3.20
2018-12-30T06:09:36.943Z,3.90
2018-12-30T06:11:47.151Z,4.53
2018-12-30T06:13:54.738Z,4.23
2018-12-30T06:16:09.893Z,3.93
2018-12-30T06:18:23.179Z,3.67
2018-12-30T06:20:30.233Z,3.97
2018-12-30T06:22:49.717Z,4.90
2018-12-30T06:24:57.937Z,3.03
2018-12-30T06:27:21.304Z,3.33
2018-12-30T06:29:42.497Z,3.53
2018-12-30T06:32:03.524Z,3.10
2018-12-30T06:34:22.155Z,2.87
2018-12-30T06:36:34.608Z,3.20
2018-12-30T06:38:49.564Z,3.40
2018-12-30T06:40:57.988Z,3.50
2018-12-30T06:43:07.424Z,3.90
2018-12-30T06:45:16.142Z,4.20
2018-12-30T06:47:31.412Z,2.83
2018-12-30T06:49:43.028Z,2.53
2018-12-30T06:51:56.790Z,3.57
2018-12-30T06:54:19.706Z,3.53
2018-12-30T06:56:36.163Z,3.07
2018-12-30T06:59:25.217Z,3.90
2018-12-30T07:01:35.846Z,2.77
2018-12-30T07:04:02.469Z,3.63
2018-12-30T07:06:25.571Z,3.80
2018-12-30T07:08:36.545Z,4.27
2018-12-30T07:10:49.169Z,5.20
2018-12-30T07:13:15.525Z,3.73
2018-12-30T07:15:33.889Z,3.60
2018-12-30T07:17:41.580Z,4.30
2018-12-30T07:20:01.782Z,4.80
2018-12-30T07:22:22.246Z,4.03
2018-12-30T07:24:38.774Z,3.63
2018-12-30T07:26:58.878Z,4.70
2018-12-30T07:29:23.150Z,5.80
2018-12-30T07:31:42.579Z,3.83
2018-12-30T07:34:05.181Z,3.43
2018-12-30T07:36:25.063Z,5.07
2018-12-30T07:38:49.256Z,5.40
2018-12-30T07:41:20.261Z,5.00
2018-12-30T07:43:37.613Z,4.30
2018-12-30T07:45:55.641Z,5.80
2018-12-30T07:48:10.179Z,4.00
2018-12-30T07:50:26.811Z,4.00
2018-12-30T07:52:47.178Z,4.27
2018-12-30T07:54:56.487Z,4.23
2018-12-30T07:57:03.663Z,2.83
2018-12-30T07:59:15.883Z,4.00
2018-12-30T08:01:37.384Z,3.97
2018-12-30T08:03:52.171Z,4.87
2018-12-30T08:06:04.225Z,4.37
2018-12-30T08:08:10.666Z,4.53
2018-12-30T08:10:16.662Z,3.50
2018-12-30T08:12:20.832Z,5.03
2018-12-30T08:14:31.900Z,5.90
2018-12-30T08:16:38.900Z,3.37
2018-12-30T08:19:32.769Z,6.10
2018-12-30T08:23:09.763Z,4.80
2018-12-30T08:24:55.674Z,4.17
2018-12-30T08:27:09.376Z,3.80
2018-12-30T08:29:13.376Z,4.50
2018-12-30T08:31:24.917Z,4.50
2018-12-30T08:33:35.003Z,5.13
2018-12-30T08:35:39.067Z,3.43
2018-12-30T08:37:43.048Z,5.43
2018-12-30T08:39:47.265Z,6.13
2018-12-30T08:41:51.122Z,3.87
2018-12-30T08:43:54.915Z,4.80
2018-12-30T08:45:58.209Z,5.27
2018-12-30T08:48:02.277Z,5.23
2018-12-30T08:50:06.316Z,4.40
2018-12-30T08:52:10.345Z,3.37
2018-12-30T08:54:15.633Z,4.07
2018-12-30T08:56:19.713Z,4.30
2018-12-30T08:58:23.515Z,3.77
2018-12-30T09:00:27.275Z,3.73
2018-12-30T09:02:31.227Z,4.00
2018-12-30T09:04:35.072Z,5.83
2018-12-30T09:06:38.844Z,4.97
2018-12-30T09:08:42.667Z,4.27
2018-12-30T09:10:46.773Z,5.10
2018-12-30T09:12:50.798Z,4.40
2018-12-30T09:14:54.740Z,4.93
2018-12-30T09:16:59.240Z,4.10
2018-12-30T09:19:03.120Z,3.97
2018-12-30T09:21:07.133Z,3.90
2018-12-30T09:23:12.870Z,3.60
2018-12-30T09:25:17.465Z,3.33
2018-12-30T09:27:21.287Z,3.50
2018-12-30T09:29:25.108Z,3.67
2018-12-30T09:31:31.756Z,5.03
2018-12-30T09:37:33.734Z,4.27
2018-12-30T09:39:37.366Z,5.33
2018-12-30T09:44:26.928Z,3.13
2018-12-30T09:46:30.989Z,4.77
2018-12-30T09:48:37.576Z,3.10
2018-12-30T09:50:41.663Z,2.67
2018-12-30T09:52:45.521Z,5.63
2018-12-30T09:54:51.083Z,3.03
2018-12-30T09:56:54.993Z,4.17
2018-12-30T09:58:58.998Z,3.47
2018-12-30T10:01:03.040Z,4.37
2018-12-30T10:03:07.142Z,4.50
2018-12-30T10:05:11.165Z,3.13
2018-12-30T10:07:14.935Z,2.87
2018-12-30T10:09:18.944Z,3.17
2018-12-30T10:11:22.739Z,3.80
2018-12-30T10:13:26.572Z,4.03
2018-12-30T10:15:30.546Z,3.13
2018-12-30T10:17:37.076Z,3.73
2018-12-30T10:19:40.840Z,3.40
2018-12-30T10:21:44.614Z,2.80
2018-12-30T10:23:52.922Z,2.63
2018-12-30T10:25:54.870Z,3.07
2018-12-30T10:27:58.670Z,4.23
2018-12-30T10:30:02.442Z,2.73
2018-12-30T10:32:08.902Z,4.63
2018-12-30T10:34:12.692Z,3.60
2018-12-30T10:36:20.522Z,2.90
2018-12-30T10:38:24.297Z,2.50
2018-12-30T10:40:28.136Z,4.13
2018-12-30T10:42:32.987Z,3.77
2018-12-30T10:44:37.002Z,3.50
2018-12-30T10:46:41.283Z,4.00
2018-12-30T10:48:45.047Z,2.60
2018-12-30T10:50:49.222Z,2.43
2018-12-30T10:52:52.554Z,2.93
2018-12-30T10:54:56.809Z,3.27
2018-12-30T10:57:00.683Z,2.10
2018-12-30T10:59:04.525Z,3.70
2018-12-30T11:01:08.304Z,2.40
2018-12-30T11:03:12.336Z,2.40
2018-12-30T11:05:16.119Z,3.20
2018-12-30T11:07:20.029Z,3.80
2018-12-30T11:09:23.905Z,3.13
2018-12-30T11:11:27.679Z,2.03
2018-12-30T11:13:31.883Z,2.33
2018-12-30T11:15:35.930Z,3.10
2018-12-30T11:17:39.719Z,2.60
2018-12-30T11:19:43.528Z,3.77
2018-12-30T11:21:48.659Z,3.97
2018-12-30T11:23:52.539Z,3.10
2018-12-30T11:25:56.618Z,2.43
2018-12-30T11:28:00.492Z,2.97
2018-12-30T11:30:04.859Z,3.30
2018-12-30T11:32:36.328Z,3.43
2018-12-30T11:35:47.123Z,2.57
2018-12-30T11:41:19.390Z,2.77
2018-12-30T11:49:25.470Z,3.20
2018-12-30T11:51:29.303Z,1.77
2018-12-30T11:53:33.138Z,2.70
2018-12-30T11:55:37.295Z,2.77
2018-12-30T11:57:41.417Z,2.10
2018-12-30T11:59:45.412Z,2.23
2018-12-30T12:01:49.255Z,4.37
2018-12-30T12:03:53.423Z,3.00
2018-12-30T12:05:57.711Z,2.50
2018-12-30T12:08:01.674Z,2.27
2018-12-30T12:10:05.786Z,3.00
2018-12-30T12:12:12.653Z,1.90
2018-12-30T12:14:16.441Z,2.57
2018-12-30T12:16:20.536Z,2.20
2018-12-30T12:18:24.368Z,1.97
2018-12-30T12:20:28.260Z,2.83
2018-12-30T12:22:32.103Z,2.97
2018-12-30T12:24:35.974Z,2.17
2018-12-30T12:26:39.830Z,2.10
2018-12-30T12:28:43.851Z,1.83
2018-12-30T12:30:47.635Z,2.40
2018-12-30T12:32:51.414Z,1.90
2018-12-30T12:34:55.525Z,3.57
2018-12-30T12:36:59.563Z,2.40
2018-12-30T12:39:04.367Z,1.80
2018-12-30T12:41:08.139Z,2.17
2018-12-30T12:43:12.498Z,2.63
2018-12-30T12:45:18.032Z,1.63
2018-12-30T12:47:21.810Z,2.83
2018-12-30T12:49:25.581Z,2.27
2018-12-30T12:51:29.477Z,1.67
2018-12-30T12:53:33.238Z,3.63
2018-12-30T12:55:37.322Z,2.07
2018-12-30T12:57:41.435Z,2.60
2018-12-30T12:59:45.696Z,2.67
2018-12-30T13:01:49.746Z,2.33
2018-12-30T13:03:53.641Z,2.20
2018-12-30T13:05:57.695Z,2.10
2018-12-30T13:08:01.486Z,2.23
2018-12-30T13:10:06.939Z,2.30
2018-12-30T13:12:10.723Z,2.07
2018-12-30T13:14:15.041Z,2.33
2018-12-30T13:16:18.838Z,2.50
2018-12-30T13:18:22.716Z,3.00
2018-12-30T13:20:26.859Z,2.37
2018-12-30T13:22:30.778Z,2.27
2018-12-30T13:24:39.959Z,2.70
2018-12-30T13:26:42.941Z,2.23
2018-12-30T13:28:46.753Z,2.33
2018-12-30T13:30:50.767Z,2.77
2018-12-30T13:32:54.800Z,3.00
2018-12-30T13:34:58.619Z,2.30
2018-12-30T13:37:02.465Z,3.30
2018-12-30T13:39:07.434Z,2.53
2018-12-30T13:41:11.219Z,2.63
2018-12-30T13:43:15.097Z,2.57
2018-12-30T13:45:18.939Z,2.30
2018-12-30T13:47:22.714Z,3.27
2018-12-30T13:49:32.648Z,2.67
2018-12-30T13:51:36.515Z,2.90
2018-12-30T13:53:52.986Z,3.40
2018-12-30T13:56:06.770Z,2.47
2018-12-30T13:58:18.624Z,2.60
2018-12-30T14:00:29.096Z,3.13
2018-12-30T14:02:36.663Z,2.87
2018-12-30T14:04:40.848Z,3.10
2018-12-30T14:06:47.559Z,3.00
2018-12-30T14:08:55.229Z,2.30
2018-12-30T14:11:01.978Z,3.07
2018-12-30T14:13:09.067Z,2.33
2018-12-30T14:15:14.970Z,3.10
2018-12-30T14:17:19.156Z,2.60
2018-12-30T14:19:23.034Z,2.63
2018-12-30T14:21:36.890Z,2.37
2018-12-30T14:23:43.540Z,3.30
2018-12-30T14:25:47.390Z,2.60
2018-12-30T14:27:54.613Z,3.17
2018-12-30T14:30:00.364Z,2.53
2018-12-30T14:32:04.182Z,2.63
2018-12-30T14:34:13.557Z,2.67
2018-12-30T14:36:17.634Z,2.47
2018-12-30T14:38:21.418Z,2.10
2018-12-30T14:40:25.213Z,2.40
2018-12-30T14:42:29.126Z,2.67
2018-12-30T14:44:37.854Z,3.00
2018-12-30T14:46:41.874Z,3.23
2018-12-30T14:48:46.101Z,3.10
2018-12-30T14:50:50.299Z,4.07
2018-12-30T14:52:54.071Z,3.60
2018-12-30T14:55:03.793Z,5.63
2018-12-30T14:57:07.551Z,5.20
2018-12-30T14:59:11.322Z,3.17
2018-12-30T15:01:15.611Z,3.70
2018-12-30T15:03:19.446Z,3.33
2018-12-30T15:05:32.442Z,3.13
2018-12-30T15:07:33.482Z,5.37
2018-12-30T15:09:37.719Z,5.30
2018-12-30T15:11:45.687Z,5.50
2018-12-30T15:13:52.943Z,4.13
2018-12-30T15:15:56.731Z,3.07
2018-12-30T15:18:11.629Z,2.77
2018-12-30T15:20:24.126Z,3.30
2018-12-30T15:22:34.294Z,3.70
2018-12-30T15:24:41.386Z,3.07
2018-12-30T15:26:47.274Z,3.50
2018-12-30T15:28:52.475Z,4.33
2018-12-30T15:30:56.295Z,3.73
2018-12-30T15:33:11.751Z,4.87
2018-12-30T15:35:23.034Z,4.50
2018-12-30T15:37:32.779Z,3.50
2018-12-30T15:39:39.351Z,4.17
2018-12-30T15:41:46.787Z,4.37
2018-12-30T15:43:53.649Z,4.77
2018-12-30T15:46:06.578Z,6.83
2018-12-30T15:48:10.450Z,5.23
2018-12-30T15:50:25.410Z,5.90
2018-12-30T15:52:35.770Z,5.87
2018-12-30T15:54:45.042Z,5.03
2018-12-30T15:56:56.595Z,5.43
2018-12-30T15:59:12.421Z,5.40
2018-12-30T16:01:29.850Z,5.00
2018-12-30T16:03:36.022Z,4.63
2018-12-30T16:05:58.074Z,4.40
2018-12-30T16:08:01.883Z,4.53
2018-12-30T16:10:11.455Z,6.03
2018-12-30T16:12:17.671Z,5.13
2018-12-30T16:14:25.290Z,5.30
2018-12-30T16:16:29.542Z,6.03
2018-12-30T16:18:33.317Z,6.13
2018-12-30T16:20:37.087Z,6.20
2018-12-30T16:22:40.882Z,6.20
2018-12-30T16:24:44.988Z,6.07
2018-12-30T16:26:48.814Z,5.20
2018-12-30T16:28:52.915Z,6.23
2018-12-30T16:30:56.858Z,6.50
2018-12-30T16:33:02.700Z,6.70
2018-12-30T16:35:06.537Z,7.90
2018-12-30T16:37:10.600Z,8.50
2018-12-30T16:39:14.387Z,8.73
2018-12-30T16:41:21.098Z,8.40
2018-12-30T16:43:24.945Z,8.83
2018-12-30T16:45:41.854Z,8.90
2018-12-30T16:47:43.116Z,9.43
2018-12-30T16:49:50.199Z,9.93
2018-12-30T16:51:54.938Z,10.37
2018-12-30T16:53:58.715Z,9.80
2018-12-30T16:56:21.089Z,10.50
2018-12-30T16:58:38.202Z,11.40
2018-12-30T17:00:42.204Z,11.27
2018-12-30T17:02:52.433Z,12.40
2018-12-30T17:04:56.717Z,10.83
2018-12-30T17:07:00.543Z,12.37
2018-12-30T17:09:06.082Z,12.10
2018-12-30T17:11:20.514Z,12.27
2018-12-30T17:13:34.902Z,14.80
2018-12-30T17:15:40.329Z,15.23
2018-12-30T17:17:48.972Z,16.33
2018-12-30T17:19:52.907Z,15.80
2018-12-30T17:21:57.303Z,15.50
2018-12-30T17:24:07.023Z,17.80
2018-12-30T17:26:10.823Z,17.23
2018-12-30T17:28:14.619Z,18.60
2018-12-30T17:30:18.678Z,18.60
2018-12-30T17:32:30.913Z,18.90
2018-12-30T17:34:37.000Z,19.00
2018-12-30T17:36:41.345Z,19.53
2018-12-30T17:38:45.312Z,23.07
2018-12-30T17:40:52.408Z,22.23
2018-12-30T17:42:56.493Z,23.67
2018-12-30T17:45:00.244Z,23.87
2018-12-30T17:47:04.105Z,26.07
2018-12-30T17:49:07.939Z,26.20
2018-12-30T17:51:11.879Z,27.33
2018-12-30T17:53:18.416Z,26.37
2018-12-30T17:55:23.508Z,28.80
2018-12-30T17:57:27.434Z,26.90
2018-12-30T17:59:31.283Z,29.00
2018-12-30T18:01:35.082Z,30.00
2018-12-30T18:03:38.896Z,29.13
2018-12-30T18:05:44.747Z,30.03
2018-12-30T18:07:48.511Z,31.87
2018-12-30T18:09:52.293Z,32.37
2018-12-30T18:11:56.303Z,29.17
2018-12-30T18:14:03.163Z,32.10
2018-12-30T18:16:07.014Z,33.23
2018-12-30T18:18:10.838Z,32.40
2018-12-30T18:20:14.606Z,32.20
2018-12-30T18:22:18.395Z,34.33
2018-12-30T18:24:22.482Z,34.73
2018-12-30T18:26:26.294Z,34.10
2018-12-30T18:28:30.178Z,34.57
2018-12-30T18:30:33.941Z,36.63
2018-12-30T18:32:37.823Z,34.63
2018-12-30T18:34:41.612Z,35.40
2018-12-30T18:36:45.490Z,33.30
2018-12-30T18:38:49.335Z,36.50
2018-12-30T18:40:53.120Z,37.53
2018-12-30T18:42:56.927Z,38.00
2018-12-30T18:48:00.786Z,38.97
2018-12-30T18:50:07.381Z,40.30
2018-12-30T18:52:11.261Z,39.17
2018-12-30T18:54:21.452Z,38.40
2018-12-30T19:00:20.672Z,39.87
2018-12-30T19:02:48.241Z,37.40
2018-12-30T19:05:37.410Z,39.67
2018-12-30T19:07:48.661Z,38.83
2018-12-30T19:10:08.594Z,38.33
2018-12-30T19:12:45.840Z,40.00
2018-12-30T19:14:49.441Z,40.00
2018-12-30T19:16:56.675Z,38.13
2018-12-30T19:19:46.735Z,39.00
2018-12-30T19:22:20.805Z,39.17
2018-12-30T19:24:24.837Z,38.00
2018-12-30T19:26:44.385Z,39.73
2018-12-30T19:28:48.352Z,40.83
2018-12-30T19:30:54.488Z,42.63
2018-12-30T19:32:59.457Z,41.40
2018-12-30T19:35:06.968Z,41.07
2018-12-30T19:37:18.127Z,44.20
2018-12-30T19:39:24.849Z,42.83
2018-12-30T19:41:39.635Z,44.10
2018-12-30T19:43:45.149Z,42.97
2018-12-30T19:45:48.952Z,43.57
2018-12-30T19:47:55.668Z,44.00
2018-12-30T19:49:59.703Z,42.00
2018-12-30T19:52:03.567Z,41.97
2018-12-30T19:54:07.471Z,42.90
2018-12-30T19:56:11.588Z,45.13
2018-12-30T19:58:43.723Z,43.87
2018-12-30T20:00:47.940Z,44.70
2018-12-30T20:02:51.947Z,46.60
2018-12-30T20:04:58.843Z,45.90
2018-12-30T20:07:04.609Z,41.40
2018-12-30T20:09:17.138Z,43.50
2018-12-30T20:11:18.854Z,44.43
2018-12-30T20:13:38.150Z,47.80
2018-12-30T20:15:42.290Z,46.23
2018-12-30T20:17:52.423Z,46.43
2018-12-30T20:20:51.849Z,46.57
2018-12-30T20:22:59.176Z,43.83
2018-12-30T20:25:03.355Z,48.30
2018-12-30T20:30:00.720Z,47.80
2018-12-30T20:32:12.900Z,48.10
2018-12-30T20:34:29.829Z,45.50
2018-12-30T20:36:35.334Z,46.53
2018-12-30T20:39:45.574Z,47.70
2018-12-30T20:41:55.496Z,45.33
2018-12-30T20:44:28.157Z,47.70
2018-12-30T20:46:37.097Z,48.13
2018-12-30T20:48:42.103Z,51.80
2018-12-30T20:50:45.897Z,51.07
2018-12-30T20:52:49.891Z,49.40
2018-12-30T20:54:59.336Z,50.30
2018-12-30T20:57:05.089Z,51.90
2018-12-30T20:59:09.417Z,50.97
2018-12-30T21:01:13.309Z,50.17
2018-12-30T21:03:17.414Z,52.30
2018-12-30T21:05:21.342Z,50.37
2018-12-30T21:07:25.295Z,51.20
2018-12-30T21:09:29.289Z,52.67
2018-12-30T21:11:33.553Z,49.90
2018-12-30T21:13:37.467Z,52.00
2018-12-30T21:15:41.403Z,50.23
2018-12-30T21:17:45.167Z,54.83
2018-12-30T21:19:49.170Z,49.43
2018-12-30T21:21:58.083Z,49.77
2018-12-30T21:24:01.923Z,50.23
2018-12-30T21:26:05.683Z,52.40
2018-12-30T21:28:15.653Z,52.63
2018-12-30T21:30:21.737Z,51.30
2018-12-30T21:32:25.851Z,50.00
2018-12-30T21:34:35.729Z,51.00
2018-12-30T21:36:52.927Z,50.37
2018-12-30T21:39:04.337Z,50.27
2018-12-30T21:41:26.038Z,51.13
2018-12-30T21:43:42.222Z,47.50
2018-12-30T21:45:56.676Z,48.13
2018-12-30T21:48:51.668Z,46.00
2018-12-30T21:54:45.471Z,44.83
2018-12-30T21:59:27.956Z,46.93
2018-12-30T22:02:06.197Z,46.90
2018-12-30T22:04:53.459Z,45.83
2018-12-30T22:07:58.438Z,45.20
2018-12-30T22:09:58.655Z,45.37
2018-12-30T22:12:15.139Z,46.67
2018-12-30T22:14:28.891Z,48.03
2018-12-30T22:16:36.379Z,48.07
2018-12-30T22:18:49.754Z,47.57
2018-12-30T22:21:23.004Z,45.87
2018-12-30T22:26:31.602Z,46.67
2018-12-30T22:28:59.469Z,44.17
2018-12-30T22:31:19.874Z,43.27
2018-12-30T22:33:33.204Z,42.07
2018-12-30T22:35:59.182Z,42.10
2018-12-30T22:38:40.070Z,40.30
2018-12-30T22:40:52.612Z,39.90
2018-12-30T22:43:40.243Z,39.20
2018-12-30T22:46:27.058Z,41.23
2018-12-30T22:49:24.224Z,38.77
2018-12-30T22:52:14.708Z,40.10
2018-12-30T22:55:13.323Z,39.77
2018-12-30T23:01:08.335Z,36.43
2018-12-30T23:01:33.842Z,37.17
2018-12-30T23:03:53.153Z,37.70
2018-12-30T23:09:01.851Z,37.57
2018-12-30T23:11:37.601Z,37.37
2018-12-30T23:13:57.697Z,37.33
2018-12-30T23:16:24.545Z,34.40
2018-12-30T23:18:37.885Z,36.63
2018-12-30T23:20:54.810Z,35.80
2018-12-30T23:23:28.192Z,34.00
2018-12-30T23:25:47.174Z,34.70
2018-12-30T23:28:02.644Z,33.50
2018-12-30T23:30:41.585Z,32.60
2018-12-30T23:33:17.922Z,32.53
2018-12-30T23:35:56.962Z,33.73
2018-12-30T23:41:00.109Z,32.63
2018-12-30T23:43:49.371Z,31.03
2018-12-30T23:46:57.033Z,31.50
2018-12-30T23:49:34.607Z,29.23
2018-12-30T23:51:58.450Z,31.97
2018-12-30T23:54:24.883Z,31.60
2018-12-30T23:56:27.836Z,28.50
2018-12-30T23:58:40.549Z,32.57
